Time;durP1;ratioP1;P1;durP2;ratioP2;P2;SDS_P1;SDS_P2;PMS_P1;PMS_P2;Temp;Humidity;BMP_temperature;BMP_pressure;BME280_temperature;BME280_humidity;BME280_pressure;Samples;Min_cycle;Max_cycle;Signal;HPM_P1;HPM_P2
2023/10/14 00:00:33;;;;;;;;;;;18.70;96.40;;;;;;4169343;28;19951;-62
2023/10/14 00:03:27;;;;;;;;;;;18.70;95.90;;;;;;4183425;28;19975;-62
2023/10/14 00:06:08;;;;;;;;;;;18.70;96.00;;;;;;4184484;28;20492;-62
2023/10/14 00:08:54;;;;;;;;;;;18.70;95.90;;;;;;4175461;28;19935;-63
2023/10/14 00:11:35;;;;;;;;;;;18.70;96.20;;;;;;4171370;28;19978;-63
2023/10/14 00:14:18;;;;;;;;;;;18.60;95.70;;;;;;4171201;28;20013;-62
2023/10/14 00:16:59;;;;;;;;;;;18.60;95.60;;;;;;4176736;28;19978;-62
2023/10/14 00:19:40;;;;;;;;;;;18.60;95.40;;;;;;4180957;28;19935;-62
2023/10/14 00:22:20;;;;;;;;;;;18.60;95.40;;;;;;4204398;28;20065;-62
2023/10/14 00:25:01;;;;;;;;;;;18.60;95.30;;;;;;4187786;28;20378;-62
2023/10/14 00:27:42;;;;;;;;;;;18.50;95.30;;;;;;4189287;28;20477;-62
2023/10/14 00:30:27;;;;;;;;;;;18.50;95.30;;;;;;4174308;28;20015;-62
2023/10/14 00:33:08;;;;;;;;;;;18.50;95.40;;;;;;4187568;28;20313;-61
2023/10/14 00:35:54;;;;;;;;;;;18.50;95.50;;;;;;4181892;28;20303;-63
2023/10/14 00:38:35;;;;;;;;;;;18.50;95.40;;;;;;4178806;28;19932;-62
2023/10/14 00:41:16;;;;;;;;;;;18.50;95.40;;;;;;4185043;28;19936;-61
2023/10/14 00:43:58;;;;;;;;;;;18.50;95.40;;;;;;4174591;28;19931;-62
2023/10/14 00:46:44;;;;;;;;;;;18.50;95.30;;;;;;4185586;28;20009;-61
2023/10/14 00:49:30;;;;;;;;;;;18.50;95.30;;;;;;4194229;28;19936;-63
2023/10/14 00:52:18;;;;;;;;;;;18.50;95.30;;;;;;4205080;28;19966;-62
2023/10/14 00:55:12;;;;;;;;;;;18.40;95.30;;;;;;4189716;28;20279;-62
2023/10/14 00:57:55;;;;;;;;;;;18.40;95.30;;;;;;4182006;28;19951;-62
2023/10/14 01:00:37;;;;;;;;;;;18.50;95.30;;;;;;4173064;28;20013;-63
2023/10/14 01:03:20;;;;;;;;;;;18.40;95.20;;;;;;4185192;28;19936;-62
2023/10/14 01:06:15;;;;;;;;;;;18.40;95.10;;;;;;4179464;28;19932;-62
2023/10/14 01:08:55;;;;;;;;;;;18.40;95.20;;;;;;4187160;28;19936;-62
2023/10/14 01:11:36;;;;;;;;;;;18.40;95.20;;;;;;4191821;28;19935;-63
2023/10/14 01:14:23;;;;;;;;;;;18.40;95.20;;;;;;4201871;28;20374;-62
2023/10/14 01:17:06;;;;;;;;;;;18.40;95.20;;;;;;4206832;28;19962;-62
2023/10/14 01:19:49;;;;;;;;;;;18.40;95.10;;;;;;4174293;28;19932;-63
2023/10/14 01:22:31;;;;;;;;;;;18.40;95.10;;;;;;4173681;28;19932;-63
2023/10/14 01:25:14;;;;;;;;;;;18.40;95.10;;;;;;4184102;28;20010;-62
2023/10/14 01:27:59;;;;;;;;;;;18.40;95.10;;;;;;4179345;28;20001;-63
2023/10/14 01:30:50;;;;;;;;;;;18.30;95.00;;;;;;4205843;28;20424;-62
2023/10/14 01:33:35;;;;;;;;;;;18.30;95.00;;;;;;4203908;28;20286;-63
2023/10/14 01:36:16;;;;;;;;;;;18.30;95.00;;;;;;4207044;28;20481;-63
2023/10/14 01:38:59;;;;;;;;;;;18.30;95.00;;;;;;4203664;28;19931;-62
2023/10/14 01:41:42;;;;;;;;;;;18.30;95.00;;;;;;4205401;28;19935;-61
2023/10/14 01:44:23;;;;;;;;;;;18.30;95.00;;;;;;4207115;28;19939;-61
2023/10/14 01:47:03;;;;;;;;;;;18.30;95.00;;;;;;4205677;28;19931;-62
2023/10/14 01:49:44;;;;;;;;;;;18.30;95.00;;;;;;4193656;28;19931;-63
2023/10/14 01:52:25;;;;;;;;;;;18.30;95.00;;;;;;4197616;28;20270;-62
2023/10/14 01:55:08;;;;;;;;;;;18.30;95.00;;;;;;4205332;28;19989;-62
2023/10/14 01:57:50;;;;;;;;;;;18.20;94.90;;;;;;4196827;28;19936;-62
2023/10/14 02:00:39;;;;;;;;;;;18.30;95.00;;;;;;4188594;28;19931;-63
2023/10/14 02:03:21;;;;;;;;;;;18.30;95.00;;;;;;4191252;28;20402;-62
2023/10/14 02:06:10;;;;;;;;;;;18.20;94.90;;;;;;4185437;28;19931;-62
2023/10/14 02:08:51;;;;;;;;;;;18.20;94.90;;;;;;4173138;28;19931;-62
2023/10/14 02:11:34;;;;;;;;;;;18.20;94.90;;;;;;4204290;28;19953;-62
2023/10/14 02:14:22;;;;;;;;;;;18.20;94.90;;;;;;4187867;28;19974;-62
2023/10/14 02:17:04;;;;;;;;;;;18.20;94.90;;;;;;4176592;28;19932;-62
2023/10/14 02:19:49;;;;;;;;;;;18.20;94.80;;;;;;4176983;28;19932;-62
2023/10/14 02:22:31;;;;;;;;;;;18.20;94.80;;;;;;4172522;28;19931;-62
2023/10/14 02:25:15;;;;;;;;;;;18.20;94.80;;;;;;4187776;28;19932;-61
2023/10/14 02:27:57;;;;;;;;;;;18.20;94.80;;;;;;4204551;28;20009;-62
2023/10/14 02:30:38;;;;;;;;;;;18.20;94.80;;;;;;4175912;28;19936;-61
2023/10/14 02:33:19;;;;;;;;;;;18.10;94.70;;;;;;4184903;28;19987;-62
2023/10/14 02:36:01;;;;;;;;;;;18.10;94.70;;;;;;4201896;28;20658;-62
2023/10/14 02:38:43;;;;;;;;;;;18.10;94.70;;;;;;4203575;28;20357;-61
2023/10/14 02:41:26;;;;;;;;;;;18.10;94.70;;;;;;4199561;28;19936;-61
2023/10/14 02:44:27;;;;;;;;;;;18.10;95.10;;;;;;4187740;28;19935;-62
2023/10/14 02:47:08;;;;;;;;;;;18.10;94.60;;;;;;4183277;28;19932;-62
2023/10/14 02:49:57;;;;;;;;;;;18.10;94.60;;;;;;4184692;28;19931;-62
2023/10/14 02:52:38;;;;;;;;;;;18.10;94.60;;;;;;4176836;28;19931;-61
2023/10/14 02:55:21;;;;;;;;;;;18.10;94.60;;;;;;4174648;28;20548;-62
2023/10/14 02:58:04;;;;;;;;;;;18.10;94.60;;;;;;4187533;28;19935;-63
2023/10/14 03:00:46;;;;;;;;;;;18.00;94.50;;;;;;4180834;28;19935;-62
2023/10/14 03:03:29;;;;;;;;;;;18.00;94.50;;;;;;4174427;28;20487;-62
2023/10/14 03:06:14;;;;;;;;;;;18.00;94.50;;;;;;4190992;28;19930;-62
2023/10/14 03:08:59;;;;;;;;;;;18.00;94.40;;;;;;4200531;28;19935;-62
2023/10/14 03:11:40;;;;;;;;;;;18.00;94.40;;;;;;4205296;28;20009;-61
2023/10/14 03:14:20;;;;;;;;;;;18.00;94.40;;;;;;4188744;28;20271;-61
2023/10/14 03:17:03;;;;;;;;;;;18.00;94.40;;;;;;4194868;28;19932;-62
2023/10/14 03:19:45;;;;;;;;;;;17.90;94.30;;;;;;4205058;28;20058;-61
2023/10/14 03:22:27;;;;;;;;;;;17.90;94.30;;;;;;4191669;28;20383;-61
2023/10/14 03:25:10;;;;;;;;;;;17.90;94.30;;;;;;4197003;28;19981;-62
2023/10/14 03:27:58;;;;;;;;;;;17.90;94.30;;;;;;4193948;28;19931;-62
2023/10/14 03:30:44;;;;;;;;;;;17.90;94.20;;;;;;4186980;28;20401;-61
2023/10/14 03:33:29;;;;;;;;;;;17.90;94.60;;;;;;4187119;28;20010;-61
2023/10/14 03:36:15;;;;;;;;;;;17.90;94.20;;;;;;4187824;28;20302;-62
2023/10/14 03:38:58;;;;;;;;;;;17.80;94.20;;;;;;4171261;28;19935;-62
2023/10/14 03:41:42;;;;;;;;;;;17.80;94.10;;;;;;4194330;28;19931;-62
2023/10/14 03:44:24;;;;;;;;;;;17.80;94.10;;;;;;4171742;28;19952;-62
2023/10/14 03:47:05;;;;;;;;;;;17.80;94.50;;;;;;4201777;28;20053;-62
2023/10/14 03:49:56;;;;;;;;;;;17.80;94.10;;;;;;4204781;28;20419;-62
2023/10/14 03:52:37;;;;;;;;;;;17.80;94.10;;;;;;4205046;28;19930;-61
2023/10/14 03:55:24;;;;;;;;;;;17.80;94.10;;;;;;4202966;28;20281;-60
2023/10/14 03:58:05;;;;;;;;;;;17.80;94.10;;;;;;4183579;28;19974;-61
2023/10/14 04:00:48;;;;;;;;;;;17.80;94.00;;;;;;4204565;28;19935;-60
2023/10/14 04:03:43;;;;;;;;;;;17.80;93.90;;;;;;4187361;28;20093;-62
2023/10/14 04:06:25;;;;;;;;;;;17.70;93.80;;;;;;4185500;28;19936;-61
2023/10/14 04:09:10;;;;;;;;;;;17.80;93.90;;;;;;4187827;28;19978;-61
2023/10/14 04:11:53;;;;;;;;;;;17.70;93.80;;;;;;4198487;28;20436;-61
2023/10/14 04:14:36;;;;;;;;;;;17.70;93.80;;;;;;4187318;28;20298;-61
2023/10/14 04:17:19;;;;;;;;;;;17.70;93.80;;;;;;4170919;28;19936;-61
2023/10/14 04:22:58;;;;;;;;;;;17.70;93.80;;;;;;4170379;28;19932;-54
2023/10/14 04:25:42;;;;;;;;;;;17.70;93.80;;;;;;4172897;28;20461;-54
2023/10/14 04:28:30;;;;;;;;;;;17.70;93.80;;;;;;4171118;28;20367;-55
2023/10/14 04:31:16;;;;;;;;;;;17.70;93.80;;;;;;4171286;28;19932;-55
2023/10/14 04:34:02;;;;;;;;;;;17.70;93.70;;;;;;4187684;28;20011;-56
2023/10/14 04:36:54;;;;;;;;;;;17.60;93.70;;;;;;4184885;28;20007;-55
2023/10/14 04:39:42;;;;;;;;;;;17.60;93.70;;;;;;4195528;28;20009;-55
2023/10/14 04:42:35;;;;;;;;;;;17.60;93.60;;;;;;4190730;28;19931;-54
2023/10/14 04:45:16;;;;;;;;;;;17.60;93.60;;;;;;4190442;28;20009;-51
2023/10/14 04:47:58;;;;;;;;;;;17.60;93.60;;;;;;4204201;28;19931;-50
2023/10/14 04:50:39;;;;;;;;;;;17.60;94.00;;;;;;4204173;28;19931;-61
2023/10/14 04:53:26;;;;;;;;;;;17.60;93.70;;;;;;4204472;28;19931;-57
2023/10/14 04:56:10;;;;;;;;;;;17.60;93.60;;;;;;4203936;28;19935;-58
2023/10/14 04:58:52;;;;;;;;;;;17.70;93.60;;;;;;4202447;28;19931;-58
2023/10/14 05:01:34;;;;;;;;;;;17.60;93.40;;;;;;4190993;28;19997;-58
2023/10/14 05:04:19;;;;;;;;;;;17.60;93.40;;;;;;4197109;28;20394;-58
2023/10/14 05:07:05;;;;;;;;;;;17.60;93.30;;;;;;4180709;28;19935;-58
2023/10/14 05:09:56;;;;;;;;;;;17.60;93.30;;;;;;4181747;28;20611;-58
2023/10/14 05:12:40;;;;;;;;;;;17.60;93.40;;;;;;4193331;28;19939;-57
2023/10/14 05:15:21;;;;;;;;;;;17.50;93.40;;;;;;4203623;28;19935;-58
2023/10/14 05:18:04;;;;;;;;;;;17.60;93.40;;;;;;4203984;28;19935;-58
2023/10/14 05:23:46;;;;;;;;;;;17.50;93.40;;;;;;4169437;28;19952;-58
2023/10/14 05:26:27;;;;;;;;;;;17.50;93.40;;;;;;4176724;28;19935;-58
2023/10/14 05:29:16;;;;;;;;;;;17.50;93.30;;;;;;4173626;28;19936;-58
2023/10/14 05:32:04;;;;;;;;;;;17.50;93.30;;;;;;4194746;28;19970;-58
2023/10/14 05:34:46;;;;;;;;;;;17.50;93.30;;;;;;4173550;28;19967;-58
2023/10/14 05:37:26;;;;;;;;;;;17.50;93.30;;;;;;4173672;28;19932;-58
2023/10/14 05:40:13;;;;;;;;;;;17.50;93.30;;;;;;4188794;28;20428;-55
2023/10/14 05:42:54;;;;;;;;;;;17.50;93.30;;;;;;4205914;28;20318;-60
2023/10/14 05:45:37;;;;;;;;;;;17.40;93.20;;;;;;4173089;28;20706;-60
2023/10/14 05:48:17;;;;;;;;;;;17.40;93.30;;;;;;4173442;28;19995;-61
2023/10/14 05:51:02;;;;;;;;;;;17.40;93.30;;;;;;4181725;28;19935;-61
2023/10/14 05:53:45;;;;;;;;;;;17.40;93.30;;;;;;4190978;28;20341;-61
2023/10/14 05:56:29;;;;;;;;;;;17.40;93.30;;;;;;4174795;28;20009;-61
2023/10/14 05:59:10;;;;;;;;;;;17.40;93.20;;;;;;4178583;28;20516;-61
2023/10/14 06:01:53;;;;;;;;;;;17.40;93.20;;;;;;4182893;28;19932;-61
2023/10/14 06:04:39;;;;;;;;;;;17.40;93.10;;;;;;4181448;28;19984;-61
2023/10/14 06:07:20;;;;;;;;;;;17.40;93.10;;;;;;4205011;28;19930;-61
2023/10/14 06:10:00;;;;;;;;;;;17.40;93.10;;;;;;4187329;28;19935;-60
2023/10/14 06:12:44;;;;;;;;;;;17.30;93.00;;;;;;4189255;28;19931;-61
2023/10/14 06:15:25;;;;;;;;;;;17.30;93.00;;;;;;4188346;28;19977;-60
2023/10/14 06:18:09;;;;;;;;;;;17.30;93.00;;;;;;4196696;28;19931;-61
2023/10/14 06:20:49;;;;;;;;;;;17.30;92.90;;;;;;4201310;28;19931;-61
2023/10/14 06:23:30;;;;;;;;;;;17.30;92.90;;;;;;4201790;28;20390;-60
2023/10/14 06:26:11;;;;;;;;;;;17.30;92.80;;;;;;4197625;28;20221;-61
2023/10/14 06:28:56;;;;;;;;;;;17.30;92.80;;;;;;4190123;28;20284;-61
2023/10/14 06:31:37;;;;;;;;;;;17.30;92.80;;;;;;4174975;28;19934;-61
2023/10/14 06:34:21;;;;;;;;;;;17.20;92.70;;;;;;4174505;28;20299;-61
2023/10/14 06:37:02;;;;;;;;;;;17.20;92.70;;;;;;4185238;28;19935;-61
2023/10/14 06:39:43;;;;;;;;;;;17.20;92.60;;;;;;4182190;28;20398;-61
2023/10/14 06:42:26;;;;;;;;;;;17.20;92.60;;;;;;4195902;28;19951;-61
2023/10/14 06:45:07;;;;;;;;;;;17.20;92.50;;;;;;4203676;28;20574;-60
2023/10/14 06:47:51;;;;;;;;;;;17.20;92.50;;;;;;4205475;28;19939;-61
2023/10/14 06:50:37;;;;;;;;;;;17.20;92.40;;;;;;4174789;28;19935;-61
2023/10/14 06:53:18;;;;;;;;;;;17.20;92.40;;;;;;4188623;28;19975;-61
2023/10/14 06:56:00;;;;;;;;;;;17.20;92.40;;;;;;4188372;28;19931;-61
2023/10/14 06:58:44;;;;;;;;;;;17.20;92.40;;;;;;4188838;28;19935;-60
2023/10/14 07:01:25;;;;;;;;;;;17.20;92.80;;;;;;4171868;28;19935;-60
2023/10/14 07:04:06;;;;;;;;;;;17.10;92.40;;;;;;4174512;28;20102;-60
2023/10/14 07:06:48;;;;;;;;;;;17.10;92.30;;;;;;4176304;28;20030;-61
2023/10/14 07:09:29;;;;;;;;;;;17.10;92.30;;;;;;4180592;28;20417;-61
2023/10/14 07:12:14;;;;;;;;;;;17.10;92.30;;;;;;4181929;28;19935;-61
2023/10/14 07:14:56;;;;;;;;;;;17.10;92.30;;;;;;4188504;28;20317;-60
2023/10/14 07:17:37;;;;;;;;;;;17.10;92.40;;;;;;4191466;28;19931;-61
2023/10/14 07:20:17;;;;;;;;;;;17.10;92.30;;;;;;4166389;28;19932;-61
2023/10/14 07:23:00;;;;;;;;;;;17.10;92.20;;;;;;4189502;28;19949;-61
2023/10/14 07:25:41;;;;;;;;;;;17.10;92.20;;;;;;4203514;28;19931;-60
2023/10/14 07:28:21;;;;;;;;;;;17.10;92.10;;;;;;4187463;28;19936;-61
2023/10/14 07:31:02;;;;;;;;;;;17.10;92.00;;;;;;4188410;28;19931;-61
2023/10/14 07:33:43;;;;;;;;;;;17.10;92.00;;;;;;4204252;28;20016;-61
2023/10/14 07:36:24;;;;;;;;;;;17.10;91.90;;;;;;4204500;28;19935;-61
2023/10/14 07:39:27;;;;;;;;;;;17.00;91.90;;;;;;4203102;28;19930;-61
2023/10/14 07:42:13;;;;;;;;;;;17.10;91.90;;;;;;4187362;28;19931;-61
2023/10/14 07:44:55;;;;;;;;;;;17.10;91.90;;;;;;4187984;28;19931;-61
2023/10/14 07:47:36;;;;;;;;;;;17.10;91.80;;;;;;4204336;28;19935;-60
2023/10/14 07:50:17;;;;;;;;;;;17.10;91.70;;;;;;4203355;28;19946;-61
2023/10/14 07:53:07;;;;;;;;;;;17.10;91.70;;;;;;4187510;28;20003;-61
2023/10/14 07:55:50;;;;;;;;;;;17.10;91.60;;;;;;4192385;28;19931;-60
2023/10/14 07:58:31;;;;;;;;;;;17.20;91.60;;;;;;4187910;28;19966;-60
2023/10/14 08:01:16;;;;;;;;;;;17.20;91.50;;;;;;4187708;28;19932;-61
2023/10/14 08:03:57;;;;;;;;;;;17.20;91.30;;;;;;4171282;28;20513;-61
2023/10/14 08:06:40;;;;;;;;;;;17.20;91.20;;;;;;4204238;28;20696;-61
2023/10/14 08:09:24;;;;;;;;;;;17.30;91.00;;;;;;4204121;28;19973;-60
2023/10/14 08:12:07;;;;;;;;;;;17.30;91.00;;;;;;4204191;28;19935;-61
2023/10/14 08:14:52;;;;;;;;;;;17.30;90.70;;;;;;4203895;28;20068;-61
2023/10/14 08:17:32;;;;;;;;;;;17.30;90.80;;;;;;4203496;28;20385;-61
2023/10/14 08:20:13;;;;;;;;;;;17.30;90.70;;;;;;4204512;28;20465;-59
2023/10/14 08:22:54;;;;;;;;;;;17.30;91.10;;;;;;4186863;28;19932;-59
2023/10/14 08:25:35;;;;;;;;;;;17.30;90.60;;;;;;4202774;28;19935;-58
2023/10/14 08:28:17;;;;;;;;;;;17.30;90.60;;;;;;4194575;28;20370;-59
2023/10/14 08:30:58;;;;;;;;;;;17.30;90.50;;;;;;4186966;28;19936;-59
2023/10/14 08:33:39;;;;;;;;;;;17.30;90.30;;;;;;4170965;28;19940;-59
2023/10/14 08:36:23;;;;;;;;;;;17.30;90.30;;;;;;4185508;28;19975;-58
2023/10/14 08:39:04;;;;;;;;;;;17.30;90.40;;;;;;4183991;28;19935;-59
2023/10/14 08:41:48;;;;;;;;;;;17.30;90.10;;;;;;4187686;28;19931;-59
2023/10/14 08:44:32;;;;;;;;;;;17.30;90.00;;;;;;4187577;28;20063;-59
2023/10/14 08:47:14;;;;;;;;;;;17.30;90.00;;;;;;4187101;28;19935;-59
2023/10/14 08:49:55;;;;;;;;;;;17.30;90.00;;;;;;4187745;28;20042;-59
2023/10/14 08:52:37;;;;;;;;;;;17.30;89.50;;;;;;4187592;28;19936;-59
2023/10/14 08:55:19;;;;;;;;;;;17.40;89.20;;;;;;4187296;28;19932;-58
2023/10/14 08:58:02;;;;;;;;;;;17.40;89.30;;;;;;4180503;28;19939;-58
2023/10/14 09:00:45;;;;;;;;;;;17.40;89.50;;;;;;4190517;28;19932;-59
2023/10/14 09:03:25;;;;;;;;;;;17.40;89.40;;;;;;4190261;28;19935;-58
2023/10/14 09:06:06;;;;;;;;;;;17.50;90.00;;;;;;4207267;28;19950;-59
2023/10/14 09:08:49;;;;;;;;;;;17.50;88.90;;;;;;4191821;28;19932;-59
2023/10/14 09:11:33;;;;;;;;;;;17.50;88.60;;;;;;4206616;28;19931;-58
2023/10/14 09:14:14;;;;;;;;;;;17.50;88.40;;;;;;4195027;28;19935;-59
2023/10/14 09:16:58;;;;;;;;;;;17.50;88.10;;;;;;4185236;28;19935;-58
2023/10/14 09:19:46;;;;;;;;;;;17.60;88.30;;;;;;4189174;28;19935;-59
2023/10/14 09:22:28;;;;;;;;;;;17.60;88.30;;;;;;4189260;28;19982;-59
2023/10/14 09:25:09;;;;;;;;;;;17.60;88.20;;;;;;4194461;28;20423;-59
2023/10/14 09:27:50;;;;;;;;;;;17.60;88.20;;;;;;4201792;28;19931;-59
2023/10/14 09:30:31;;;;;;;;;;;17.60;88.30;;;;;;4190458;28;19939;-58
2023/10/14 09:33:16;;;;;;;;;;;17.60;88.20;;;;;;4198783;28;19934;-59
2023/10/14 09:35:58;;;;;;;;;;;17.70;88.70;;;;;;4197384;28;19931;-57
2023/10/14 09:38:40;;;;;;;;;;;17.60;87.50;;;;;;4203563;28;19970;-58
2023/10/14 09:41:21;;;;;;;;;;;17.60;87.00;;;;;;4185821;28;19935;-57
2023/10/14 09:44:03;;;;;;;;;;;17.60;86.90;;;;;;4186751;28;19935;-58
2023/10/14 09:46:44;;;;;;;;;;;17.60;86.70;;;;;;4193106;28;19931;-57
2023/10/14 09:49:28;;;;;;;;;;;17.50;86.60;;;;;;4187520;28;20390;-58
2023/10/14 09:52:14;;;;;;;;;;;17.50;86.80;;;;;;4191631;28;19982;-59
2023/10/14 09:54:55;;;;;;;;;;;17.50;87.50;;;;;;4192961;28;19935;-52
2023/10/14 09:57:38;;;;;;;;;;;17.50;86.20;;;;;;4190956;28;19932;-59
2023/10/14 10:00:19;;;;;;;;;;;17.40;86.00;;;;;;4193790;28;19936;-60
2023/10/14 10:03:00;;;;;;;;;;;17.40;86.20;;;;;;4192836;28;19981;-59
2023/10/14 10:05:46;;;;;;;;;;;17.40;86.30;;;;;;4192595;28;20024;-59
2023/10/14 10:08:49;;;;;;;;;;;17.40;86.90;;;;;;4190388;28;19935;-61
2023/10/14 10:11:33;;;;;;;;;;;17.40;87.30;;;;;;4185606;28;19943;-60
2023/10/14 10:14:18;;;;;;;;;;;17.40;87.40;;;;;;4173521;28;19936;-60
2023/10/14 10:17:00;;;;;;;;;;;17.40;87.00;;;;;;4185387;28;19944;-60
2023/10/14 10:20:09;;;;;;;;;;;17.40;87.50;;;;;;4185920;28;19932;-60
2023/10/14 10:22:51;;;;;;;;;;;17.40;87.80;;;;;;4194135;28;19931;-60
2023/10/14 10:25:49;;;;;;;;;;;17.40;88.00;;;;;;4189526;28;20408;-60
2023/10/14 10:28:40;;;;;;;;;;;17.40;87.20;;;;;;4189662;28;20066;-60
2023/10/14 10:31:23;;;;;;;;;;;17.40;87.10;;;;;;4202592;28;19965;-60
2023/10/14 10:34:08;;;;;;;;;;;17.40;87.60;;;;;;4186278;28;19951;-60
2023/10/14 10:36:52;;;;;;;;;;;17.40;87.60;;;;;;4198524;28;19939;-60
2023/10/14 10:39:34;;;;;;;;;;;17.40;87.20;;;;;;4186784;28;19935;-60
2023/10/14 10:42:16;;;;;;;;;;;17.40;88.10;;;;;;4186510;28;19939;-60
2023/10/14 10:44:56;;;;;;;;;;;17.30;87.20;;;;;;4187917;28;19957;-60
2023/10/14 10:47:51;;;;;;;;;;;17.30;87.40;;;;;;4185932;28;19935;-60
2023/10/14 10:50:35;;;;;;;;;;;17.30;87.70;;;;;;4186638;28;19958;-60
2023/10/14 10:53:18;;;;;;;;;;;17.40;88.00;;;;;;4195248;28;20393;-60
2023/10/14 10:56:01;;;;;;;;;;;17.40;88.10;;;;;;4196797;28;19934;-60
2023/10/14 10:58:42;;;;;;;;;;;17.40;88.10;;;;;;4190304;28;19981;-60
2023/10/14 11:01:23;;;;;;;;;;;17.50;87.80;;;;;;4191100;28;19936;-61
2023/10/14 11:04:08;;;;;;;;;;;17.40;87.40;;;;;;4186214;28;20428;-60
2023/10/14 11:06:51;;;;;;;;;;;17.50;86.70;;;;;;4199694;28;20077;-60
2023/10/14 11:09:34;;;;;;;;;;;17.50;87.10;;;;;;4187694;28;20062;-60
2023/10/14 11:12:18;;;;;;;;;;;17.50;86.80;;;;;;4184361;28;19935;-60
2023/10/14 11:14:59;;;;;;;;;;;17.50;86.50;;;;;;4192102;28;20282;-60
2023/10/14 11:17:40;;;;;;;;;;;17.60;86.20;;;;;;4196296;28;19948;-60
2023/10/14 11:20:21;;;;;;;;;;;17.50;84.90;;;;;;4189630;28;19947;-60
2023/10/14 11:23:03;;;;;;;;;;;17.50;85.60;;;;;;4189794;28;19935;-59
2023/10/14 11:25:46;;;;;;;;;;;17.50;86.70;;;;;;4195138;28;19935;-60
2023/10/14 11:28:28;;;;;;;;;;;17.50;86.10;;;;;;4185967;28;20013;-59
2023/10/14 11:31:08;;;;;;;;;;;17.50;86.30;;;;;;4185727;28;20804;-60
2023/10/14 11:33:49;;;;;;;;;;;17.50;86.40;;;;;;4187774;28;19936;-60
2023/10/14 11:36:30;;;;;;;;;;;17.50;86.90;;;;;;4185772;28;20074;-60
2023/10/14 11:39:14;;;;;;;;;;;17.50;86.90;;;;;;4185427;28;19935;-60
2023/10/14 11:41:55;;;;;;;;;;;17.50;87.80;;;;;;4186391;28;20299;-59
2023/10/14 11:44:37;;;;;;;;;;;17.50;87.10;;;;;;4188333;28;20085;-59
2023/10/14 11:47:18;;;;;;;;;;;17.50;87.10;;;;;;4186917;28;19935;-59
2023/10/14 11:50:11;;;;;;;;;;;17.50;86.80;;;;;;4187060;28;19935;-59
2023/10/14 11:52:54;;;;;;;;;;;17.50;87.10;;;;;;4187513;28;19939;-59
2023/10/14 11:55:35;;;;;;;;;;;17.60;87.30;;;;;;4190994;28;20002;-59
2023/10/14 11:58:16;;;;;;;;;;;17.50;87.40;;;;;;4193648;28;19931;-60
2023/10/14 12:00:58;;;;;;;;;;;17.50;87.60;;;;;;4202317;28;20089;-59
2023/10/14 12:03:40;;;;;;;;;;;17.50;87.90;;;;;;4193452;28;20313;-60
2023/10/14 12:06:21;;;;;;;;;;;17.50;87.80;;;;;;4197852;28;20069;-59
2023/10/14 12:09:05;;;;;;;;;;;17.50;87.80;;;;;;4186276;28;20406;-59
2023/10/14 12:11:47;;;;;;;;;;;17.60;87.60;;;;;;4201437;28;20397;-58
2023/10/14 12:14:28;;;;;;;;;;;17.50;87.90;;;;;;4196230;28;19951;-59
2023/10/14 12:17:12;;;;;;;;;;;17.50;88.00;;;;;;4186085;28;19978;-59
2023/10/14 12:19:53;;;;;;;;;;;17.60;87.80;;;;;;4189336;28;19979;-59
2023/10/14 12:22:34;;;;;;;;;;;17.60;87.00;;;;;;4185510;28;19935;-59
2023/10/14 12:25:17;;;;;;;;;;;17.60;86.50;;;;;;4187291;28;19935;-59
2023/10/14 12:27:58;;;;;;;;;;;17.50;85.80;;;;;;4183551;28;20402;-59
2023/10/14 12:30:41;;;;;;;;;;;17.50;86.00;;;;;;4188157;28;19931;-59
2023/10/14 12:33:24;;;;;;;;;;;17.50;86.10;;;;;;4184774;28;19939;-59
2023/10/14 12:36:09;;;;;;;;;;;17.50;86.20;;;;;;4198462;28;19935;-60
2023/10/14 12:38:49;;;;;;;;;;;17.50;86.40;;;;;;4205224;28;19978;-60
2023/10/14 12:41:30;;;;;;;;;;;17.50;85.90;;;;;;4204759;28;19935;-59
2023/10/14 12:44:13;;;;;;;;;;;17.60;85.10;;;;;;4188244;28;20322;-59
2023/10/14 12:46:54;;;;;;;;;;;17.50;84.30;;;;;;4192071;28;19966;-60
2023/10/14 12:49:37;;;;;;;;;;;17.60;83.10;;;;;;4192049;28;19932;-59
2023/10/14 12:52:19;;;;;;;;;;;17.60;82.50;;;;;;4190594;28;19979;-59
2023/10/14 12:55:08;;;;;;;;;;;17.60;82.70;;;;;;4203029;28;19934;-61
2023/10/14 12:57:49;;;;;;;;;;;17.60;83.20;;;;;;4193589;28;19935;-55
2023/10/14 13:00:31;;;;;;;;;;;17.60;84.20;;;;;;4194377;28;19982;-59
2023/10/14 13:03:12;;;;;;;;;;;17.60;82.20;;;;;;4189515;28;19935;-59
2023/10/14 13:05:54;;;;;;;;;;;17.70;82.40;;;;;;4201622;28;20057;-60
2023/10/14 13:08:36;;;;;;;;;;;17.70;83.10;;;;;;4203708;28;20044;-60
2023/10/14 13:11:17;;;;;;;;;;;17.70;81.30;;;;;;4191717;28;19939;-59
2023/10/14 13:13:58;;;;;;;;;;;17.80;81.40;;;;;;4188038;28;20011;-60
2023/10/14 13:16:39;;;;;;;;;;;17.80;81.00;;;;;;4188029;28;19946;-60
2023/10/14 13:19:23;;;;;;;;;;;17.90;81.10;;;;;;4201152;28;19939;-60
2023/10/14 13:22:11;;;;;;;;;;;17.90;81.10;;;;;;4190588;28;20046;-60
2023/10/14 13:24:52;;;;;;;;;;;17.90;81.40;;;;;;4189338;28;19936;-61
2023/10/14 13:27:32;;;;;;;;;;;17.90;81.40;;;;;;4194575;28;20018;-61
2023/10/14 13:30:16;;;;;;;;;;;17.90;80.90;;;;;;4190334;28;19935;-60
2023/10/14 13:32:58;;;;;;;;;;;17.90;80.30;;;;;;4187293;28;19971;-60
2023/10/14 13:35:39;;;;;;;;;;;17.90;81.50;;;;;;4194276;28;19939;-60
2023/10/14 13:38:22;;;;;;;;;;;17.90;79.50;;;;;;4187352;28;19947;-60
2023/10/14 13:41:03;;;;;;;;;;;18.00;79.50;;;;;;4187627;28;19931;-57
2023/10/14 13:43:44;;;;;;;;;;;18.00;79.50;;;;;;4203199;28;19930;-59
2023/10/14 13:46:25;;;;;;;;;;;18.00;79.40;;;;;;4191037;28;20034;-58
2023/10/14 13:49:06;;;;;;;;;;;17.90;78.70;;;;;;4186659;28;20061;-59
2023/10/14 13:51:52;;;;;;;;;;;17.90;79.40;;;;;;4198944;28;19992;-59
2023/10/14 13:54:34;;;;;;;;;;;17.90;78.80;;;;;;4195910;28;19950;-59
2023/10/14 13:57:17;;;;;;;;;;;17.90;79.30;;;;;;4186613;28;19985;-59
2023/10/14 13:59:58;;;;;;;;;;;17.90;80.50;;;;;;4187265;28;19932;-59
2023/10/14 14:02:41;;;;;;;;;;;17.90;81.20;;;;;;4186620;28;20093;-59
2023/10/14 14:05:22;;;;;;;;;;;17.90;81.40;;;;;;4187077;28;19934;-59
2023/10/14 14:08:07;;;;;;;;;;;17.90;82.30;;;;;;4186319;28;19935;-59
2023/10/14 14:10:50;;;;;;;;;;;17.90;83.10;;;;;;4198325;28;19954;-58
2023/10/14 14:13:32;;;;;;;;;;;17.80;83.40;;;;;;4191351;28;20397;-58
2023/10/14 14:16:13;;;;;;;;;;;17.80;83.60;;;;;;4186341;28;19984;-59
2023/10/14 14:18:54;;;;;;;;;;;17.80;83.40;;;;;;4185893;28;19978;-59
2023/10/14 14:21:35;;;;;;;;;;;17.80;82.90;;;;;;4192587;28;19935;-58
2023/10/14 14:24:16;;;;;;;;;;;17.80;82.50;;;;;;4206352;28;20415;-59
2023/10/14 14:26:58;;;;;;;;;;;17.80;82.80;;;;;;4196210;28;20413;-59
2023/10/14 14:29:42;;;;;;;;;;;17.80;83.00;;;;;;4181322;28;19932;-59
2023/10/14 14:32:22;;;;;;;;;;;17.80;82.60;;;;;;4200188;28;19931;-59
2023/10/14 14:35:04;;;;;;;;;;;17.80;83.10;;;;;;4172411;28;20390;-59
2023/10/14 14:37:45;;;;;;;;;;;17.80;82.80;;;;;;4187584;28;19966;-59
2023/10/14 14:40:28;;;;;;;;;;;17.80;81.60;;;;;;4195120;28;19936;-59
2023/10/14 14:43:10;;;;;;;;;;;17.80;82.10;;;;;;4172512;28;19936;-59
2023/10/14 14:45:51;;;;;;;;;;;17.70;81.60;;;;;;4188307;28;20344;-59
2023/10/14 14:48:32;;;;;;;;;;;17.70;83.00;;;;;;4194549;28;19977;-58
2023/10/14 14:51:12;;;;;;;;;;;17.70;82.10;;;;;;4188221;28;20377;-59
2023/10/14 14:53:55;;;;;;;;;;;17.70;81.40;;;;;;4188602;28;20282;-59
2023/10/14 14:56:36;;;;;;;;;;;17.60;80.70;;;;;;4181513;28;19932;-59
2023/10/14 14:59:18;;;;;;;;;;;17.60;80.40;;;;;;4189388;28;20061;-59
2023/10/14 15:02:01;;;;;;;;;;;17.60;81.00;;;;;;4188764;28;21283;-60
2023/10/14 15:04:43;;;;;;;;;;;17.60;81.40;;;;;;4204121;28;19984;-59
2023/10/14 15:07:25;;;;;;;;;;;17.60;81.40;;;;;;4197476;28;19950;-60
2023/10/14 15:10:06;;;;;;;;;;;17.60;81.10;;;;;;4191173;28;20029;-60
2023/10/14 15:12:48;;;;;;;;;;;17.60;81.80;;;;;;4205238;28;20064;-60
2023/10/14 15:15:30;;;;;;;;;;;17.60;82.00;;;;;;4203014;28;20377;-59
2023/10/14 15:18:12;;;;;;;;;;;17.60;82.30;;;;;;4204372;28;20373;-59
2023/10/14 15:20:54;;;;;;;;;;;17.70;83.50;;;;;;4205031;28;19935;-59
2023/10/14 15:23:36;;;;;;;;;;;17.60;82.80;;;;;;4203886;28;19934;-60
2023/10/14 15:26:16;;;;;;;;;;;17.70;83.10;;;;;;4196587;28;20393;-59
2023/10/14 15:28:57;;;;;;;;;;;17.70;83.30;;;;;;4203826;28;20282;-60
2023/10/14 15:31:39;;;;;;;;;;;17.70;83.40;;;;;;4204362;28;19938;-58
2023/10/14 15:34:27;;;;;;;;;;;17.70;83.40;;;;;;4204476;28;19932;-58
2023/10/14 15:37:09;;;;;;;;;;;17.70;83.70;;;;;;4176941;28;19965;-59
2023/10/14 15:39:50;;;;;;;;;;;17.70;83.70;;;;;;4178481;28;19977;-58
2023/10/14 15:42:33;;;;;;;;;;;17.70;83.60;;;;;;4177062;28;19983;-59
2023/10/14 15:45:15;;;;;;;;;;;17.70;83.80;;;;;;4177429;28;19943;-59
2023/10/14 15:47:59;;;;;;;;;;;17.70;84.30;;;;;;4202017;28;19960;-58
2023/10/14 15:50:43;;;;;;;;;;;17.70;83.00;;;;;;4203146;28;19935;-59
2023/10/14 15:53:28;;;;;;;;;;;17.70;83.40;;;;;;4201781;28;19931;-58